createdAt,value
2023-03-04T00:00:08.888Z,10.80
2023-03-04T00:02:36.843Z,11.53
2023-03-04T00:05:08.121Z,11.27
2023-03-04T00:07:37.427Z,10.80
2023-03-04T00:10:06.101Z,10.23
2023-03-04T00:12:34.030Z,10.10
2023-03-04T00:15:01.900Z,9.87
2023-03-04T00:17:31.610Z,9.23
2023-03-04T00:19:59.519Z,10.07
2023-03-04T00:22:27.446Z,9.60
2023-03-04T00:24:56.793Z,9.80
2023-03-04T00:27:24.691Z,10.47
2023-03-04T00:29:52.662Z,10.80
2023-03-04T00:32:20.646Z,9.77
2023-03-04T00:34:48.705Z,9.30
2023-03-04T00:37:16.798Z,10.00
2023-03-04T00:39:44.694Z,10.03
2023-03-04T00:42:14.010Z,9.60
2023-03-04T00:44:41.907Z,9.23
2023-03-04T00:47:10.313Z,8.53
2023-03-04T00:49:38.742Z,8.83
2023-03-04T00:52:06.781Z,9.83
2023-03-04T00:54:35.111Z,8.47
2023-03-04T00:57:03.247Z,9.80
2023-03-04T00:59:32.598Z,8.10
2023-03-04T01:02:00.573Z,9.47
2023-03-04T01:04:28.629Z,8.13
2023-03-04T01:06:56.627Z,8.00
2023-03-04T01:09:24.614Z,9.03
2023-03-04T01:11:52.598Z,8.03
2023-03-04T01:14:20.664Z,8.20
2023-03-04T01:16:50.624Z,9.27
2023-03-04T01:19:18.746Z,8.93
2023-03-04T01:21:46.742Z,7.10
2023-03-04T01:24:15.035Z,8.73
2023-03-04T01:26:43.065Z,7.63
2023-03-04T01:29:11.262Z,7.80
2023-03-04T01:31:39.266Z,7.90
2023-03-04T01:34:09.960Z,8.70
2023-03-04T01:36:37.875Z,8.87
2023-03-04T01:39:05.916Z,8.63
2023-03-04T01:41:34.194Z,8.60
2023-03-04T01:44:03.218Z,8.50
2023-03-04T01:46:32.388Z,8.97
2023-03-04T01:49:01.089Z,8.27
2023-03-04T01:51:30.540Z,8.90
2023-03-04T01:53:58.600Z,7.90
2023-03-04T01:56:30.741Z,7.43
2023-03-04T01:59:10.550Z,7.20
2023-03-04T02:01:39.414Z,7.53
2023-03-04T02:04:08.916Z,7.20
2023-03-04T02:06:39.449Z,8.13
2023-03-04T02:09:08.479Z,6.50
2023-03-04T02:11:38.402Z,10.27
2023-03-04T02:14:07.737Z,7.37
2023-03-04T02:16:35.753Z,6.80
2023-03-04T02:19:06.283Z,7.93
2023-03-04T02:21:35.728Z,5.87
2023-03-04T02:24:15.339Z,6.37
2023-03-04T02:26:47.081Z,7.33
2023-03-04T02:29:16.791Z,7.97
2023-03-04T02:31:46.721Z,7.23
2023-03-04T02:34:17.340Z,6.40
2023-03-04T02:36:47.827Z,7.40
2023-03-04T02:39:26.803Z,7.27
2023-03-04T02:41:57.224Z,7.03
2023-03-04T02:44:27.653Z,7.50
2023-03-04T02:46:56.337Z,8.30
2023-03-04T02:49:25.506Z,8.20
2023-03-04T02:51:54.415Z,7.97
2023-03-04T02:54:24.582Z,6.90
2023-03-04T02:56:54.297Z,7.83
2023-03-04T02:59:24.807Z,7.53
2023-03-04T03:01:53.022Z,8.00
2023-03-04T03:04:22.328Z,8.30
2023-03-04T03:06:50.358Z,6.70
2023-03-04T03:09:18.554Z,7.40
2023-03-04T03:11:46.579Z,8.27
2023-03-04T03:14:14.657Z,7.43
2023-03-04T03:16:44.261Z,8.50
2023-03-04T03:19:12.217Z,7.70
2023-03-04T03:21:40.167Z,8.57
2023-03-04T03:24:08.647Z,7.80
2023-03-04T03:26:37.341Z,8.17
2023-03-04T03:29:05.738Z,7.87
2023-03-04T03:31:34.325Z,7.73
2023-03-04T03:34:04.588Z,8.50
2023-03-04T03:36:32.750Z,7.70
2023-03-04T03:39:00.713Z,7.97
2023-03-04T03:41:28.650Z,8.53
2023-03-04T03:43:56.966Z,8.33
2023-03-04T03:46:24.965Z,8.47
2023-03-04T03:48:52.908Z,9.70
2023-03-04T03:51:22.256Z,9.00
2023-03-04T03:53:50.449Z,10.03
2023-03-04T03:56:18.545Z,9.40
2023-03-04T03:58:46.528Z,10.90
2023-03-04T04:01:14.712Z,10.37
2023-03-04T04:03:42.799Z,10.03
2023-03-04T04:06:10.816Z,9.70
2023-03-04T04:08:40.379Z,9.80
2023-03-04T04:11:10.770Z,10.90
2023-03-04T04:13:39.421Z,8.87
2023-03-04T04:16:08.638Z,9.13
2023-03-04T04:18:36.757Z,9.50
2023-03-04T04:21:05.627Z,8.10
2023-03-04T04:23:34.008Z,9.60
2023-03-04T04:26:03.342Z,8.37
2023-03-04T04:28:31.378Z,8.93
2023-03-04T04:30:59.383Z,9.17
2023-03-04T04:33:27.599Z,9.37
2023-03-04T04:35:55.639Z,8.63
2023-03-04T04:38:24.717Z,9.23
2023-03-04T04:40:52.704Z,8.43
2023-03-04T04:43:22.090Z,9.50
2023-03-04T04:45:50.178Z,9.50
2023-03-04T04:48:18.154Z,8.83
2023-03-04T04:50:46.219Z,8.77
2023-03-04T04:53:14.436Z,8.97
2023-03-04T04:55:42.450Z,9.00
2023-03-04T04:58:10.438Z,10.43
2023-03-04T05:00:39.920Z,7.53
2023-03-04T05:03:08.012Z,10.60
2023-03-04T05:05:36.121Z,10.30
2023-03-04T05:08:04.098Z,9.33
2023-03-04T05:10:32.429Z,9.30
2023-03-04T05:13:00.527Z,9.13
2023-03-04T05:15:28.576Z,9.73
2023-03-04T05:17:58.256Z,9.30
2023-03-04T05:20:27.483Z,9.70
2023-03-04T05:22:55.639Z,9.13
2023-03-04T05:25:23.632Z,9.70
2023-03-04T05:27:51.566Z,10.90
2023-03-04T05:30:19.960Z,9.63
2023-03-04T05:32:48.134Z,8.87
2023-03-04T05:35:17.593Z,9.13
2023-03-04T05:37:45.533Z,9.10
2023-03-04T05:40:14.578Z,10.20
2023-03-04T05:42:42.512Z,9.50
2023-03-04T05:45:11.003Z,8.97
2023-03-04T05:47:39.002Z,9.27
2023-03-04T05:50:07.962Z,10.23
2023-03-04T05:52:37.412Z,9.77
2023-03-04T05:55:05.870Z,8.80
2023-03-04T05:57:33.907Z,8.43
2023-03-04T06:00:01.879Z,9.17
2023-03-04T06:02:29.965Z,10.07
2023-03-04T06:04:57.997Z,8.73
2023-03-04T06:07:25.986Z,8.40
2023-03-04T06:09:55.290Z,9.97
2023-03-04T06:12:23.284Z,9.07
2023-03-04T06:14:51.275Z,9.00
2023-03-04T06:17:19.282Z,11.43
2023-03-04T06:19:47.192Z,9.43
2023-03-04T06:22:15.158Z,10.33
2023-03-04T06:24:43.492Z,11.47
2023-03-04T06:27:13.585Z,10.10
2023-03-04T06:29:41.651Z,10.80
2023-03-04T06:32:09.705Z,10.87
2023-03-04T06:34:37.651Z,10.40
2023-03-04T06:37:06.119Z,10.10
2023-03-04T06:39:34.379Z,10.13
2023-03-04T06:42:02.372Z,10.53
2023-03-04T06:44:32.140Z,9.33
2023-03-04T06:47:00.195Z,10.00
2023-03-04T06:49:28.153Z,9.87
2023-03-04T06:51:56.172Z,8.80
2023-03-04T06:54:24.284Z,11.20
2023-03-04T06:56:52.495Z,10.33
2023-03-04T06:59:20.634Z,10.00
2023-03-04T07:01:50.000Z,9.47
2023-03-04T07:04:18.092Z,8.97
2023-03-04T07:06:46.066Z,9.63
2023-03-04T07:09:14.030Z,9.47
2023-03-04T07:11:42.157Z,9.33
2023-03-04T07:14:10.342Z,8.93
2023-03-04T07:16:38.398Z,9.63
2023-03-04T07:19:07.810Z,10.10
2023-03-04T07:21:35.850Z,10.67
2023-03-04T07:24:04.468Z,11.00
2023-03-04T07:26:32.740Z,8.30
2023-03-04T07:29:01.937Z,10.07
2023-03-04T07:31:31.909Z,9.67
2023-03-04T07:34:02.112Z,10.43
2023-03-04T07:36:32.121Z,12.60
2023-03-04T07:39:00.482Z,10.33
2023-03-04T07:41:30.088Z,10.57
2023-03-04T07:43:59.332Z,11.63
2023-03-04T07:46:27.790Z,10.63
2023-03-04T07:48:56.798Z,10.90
2023-03-04T07:51:26.906Z,10.37
2023-03-04T07:53:59.299Z,11.30
2023-03-04T07:56:30.323Z,9.40
2023-03-04T07:58:58.633Z,10.83
2023-03-04T08:01:29.555Z,10.50
2023-03-04T08:03:57.843Z,10.80
2023-03-04T08:06:26.964Z,9.80
2023-03-04T08:09:00.873Z,10.63
2023-03-04T08:11:30.530Z,11.70
2023-03-04T08:13:59.136Z,11.20
2023-03-04T08:16:27.940Z,9.53
2023-03-04T08:18:57.751Z,9.83
2023-03-04T08:21:27.892Z,9.33
2023-03-04T08:23:58.557Z,10.17
2023-03-04T08:26:31.000Z,10.03
2023-03-04T08:28:59.413Z,9.20
2023-03-04T08:31:27.481Z,9.93
2023-03-04T08:33:56.599Z,11.03
2023-03-04T08:36:24.748Z,10.80
2023-03-04T08:38:52.936Z,10.07
2023-03-04T08:41:21.130Z,9.50
2023-03-04T08:43:51.198Z,10.40
2023-03-04T08:46:19.553Z,9.60
2023-03-04T08:48:47.644Z,10.03
2023-03-04T08:51:17.199Z,9.73
2023-03-04T08:53:46.151Z,10.43
2023-03-04T08:56:15.162Z,9.67
2023-03-04T08:58:44.323Z,10.30
2023-03-04T09:01:15.401Z,10.37
2023-03-04T09:03:43.915Z,10.17
2023-03-04T09:06:15.674Z,11.40
2023-03-04T09:08:44.101Z,10.23
2023-03-04T09:11:13.183Z,10.53
2023-03-04T09:13:41.518Z,10.43
2023-03-04T09:16:11.760Z,10.93
2023-03-04T09:18:50.177Z,10.67
2023-03-04T09:21:18.178Z,11.00
2023-03-04T09:23:46.437Z,10.70
2023-03-04T09:26:17.617Z,11.50
2023-03-04T09:28:46.029Z,11.23
2023-03-04T09:31:15.555Z,11.37
2023-03-04T09:33:45.198Z,11.23
2023-03-04T09:36:14.473Z,11.43
2023-03-04T09:38:43.207Z,10.87
2023-03-04T09:41:17.284Z,11.20
2023-03-04T09:43:46.523Z,10.50
2023-03-04T09:46:17.419Z,11.23
2023-03-04T09:48:49.663Z,9.90
2023-03-04T09:51:23.398Z,12.33
2023-03-04T09:54:07.118Z,10.13
2023-03-04T09:56:38.191Z,10.13
2023-03-04T09:59:15.956Z,10.00
2023-03-04T10:01:56.882Z,11.27
2023-03-04T10:04:35.278Z,10.50
2023-03-04T10:07:06.240Z,10.43
2023-03-04T10:09:44.889Z,10.70
2023-03-04T10:12:16.270Z,9.80
2023-03-04T10:14:48.099Z,10.40
2023-03-04T10:17:20.872Z,11.47
2023-03-04T10:20:02.568Z,11.63
2023-03-04T10:22:35.803Z,9.97
2023-03-04T10:25:17.015Z,9.93
2023-03-04T10:27:49.606Z,11.43
2023-03-04T10:30:24.665Z,9.43
2023-03-04T10:32:52.799Z,11.90
2023-03-04T10:35:27.399Z,9.53
2023-03-04T10:37:55.844Z,10.57
2023-03-04T10:40:25.650Z,10.33
2023-03-04T10:43:01.355Z,11.10
2023-03-04T10:45:35.336Z,10.00
2023-03-04T10:48:03.524Z,10.20
2023-03-04T10:50:33.010Z,9.63
2023-03-04T10:53:01.087Z,9.43
2023-03-04T10:55:31.380Z,9.03
2023-03-04T10:58:05.096Z,11.20
2023-03-04T11:00:35.037Z,9.23
2023-03-04T11:03:29.372Z,9.90
2023-03-04T11:06:16.683Z,10.00
2023-03-04T11:08:45.323Z,9.47
2023-03-04T11:11:27.498Z,10.20
2023-03-04T11:14:00.655Z,9.07
2023-03-04T11:16:31.193Z,10.23
2023-03-04T11:19:03.951Z,9.43
2023-03-04T11:21:40.281Z,9.27
2023-03-04T11:24:27.590Z,9.63
2023-03-04T11:27:03.105Z,9.00
2023-03-04T11:29:35.651Z,10.30
2023-03-04T11:32:11.237Z,9.13
2023-03-04T11:34:44.260Z,9.80
2023-03-04T11:37:23.628Z,9.70
2023-03-04T11:39:56.021Z,8.73
2023-03-04T11:42:35.968Z,9.00
2023-03-04T11:45:04.908Z,9.97
2023-03-04T11:47:58.533Z,8.60
2023-03-04T11:50:36.484Z,8.07
2023-03-04T11:53:27.845Z,8.00
2023-03-04T11:56:10.570Z,8.97
2023-03-04T11:59:27.136Z,9.80
2023-03-04T12:02:15.242Z,8.90
2023-03-04T12:05:19.647Z,10.50
2023-03-04T12:08:14.872Z,10.40
2023-03-04T12:10:50.759Z,8.90
2023-03-04T12:13:59.483Z,11.17
2023-03-04T12:17:02.113Z,9.67
2023-03-04T12:19:38.520Z,10.77
2023-03-04T12:22:30.583Z,8.60
2023-03-04T12:25:26.169Z,8.60
2023-03-04T12:28:10.496Z,9.90
2023-03-04T12:30:50.958Z,9.90
2023-03-04T12:33:31.251Z,9.80
2023-03-04T12:36:12.854Z,10.50
2023-03-04T12:39:01.658Z,11.10
2023-03-04T12:41:44.773Z,11.10
2023-03-04T12:44:19.348Z,10.07
2023-03-04T12:47:08.796Z,9.20
2023-03-04T12:49:56.573Z,9.20
2023-03-04T12:52:35.562Z,8.97
2023-03-04T12:55:09.265Z,9.30
2023-03-04T12:57:38.852Z,8.37
2023-03-04T13:00:20.740Z,8.50
2023-03-04T13:03:12.313Z,8.60
2023-03-04T13:05:50.271Z,9.50
2023-03-04T13:08:31.151Z,8.87
2023-03-04T13:11:03.595Z,9.27
2023-03-04T13:13:41.537Z,9.03
2023-03-04T13:16:32.615Z,10.37
2023-03-04T13:19:01.410Z,8.17
2023-03-04T13:21:32.606Z,9.57
2023-03-04T13:24:41.924Z,8.80
2023-03-04T13:27:43.543Z,9.40
2023-03-04T13:30:44.189Z,9.93
2023-03-04T13:33:49.135Z,9.33
2023-03-04T13:36:59.235Z,8.47
2023-03-04T13:39:34.693Z,8.20
2023-03-04T13:42:04.266Z,8.83
2023-03-04T13:45:02.944Z,9.00
2023-03-04T13:47:47.737Z,8.20
2023-03-04T13:50:42.148Z,9.30
2023-03-04T13:53:40.955Z,9.00
2023-03-04T13:56:22.039Z,8.60
2023-03-04T13:58:52.227Z,10.03
2023-03-04T14:01:28.618Z,9.00
2023-03-04T14:03:57.184Z,9.00
2023-03-04T14:06:28.645Z,9.43
2023-03-04T14:08:58.186Z,9.10
2023-03-04T14:11:31.659Z,9.97
2023-03-04T14:14:04.596Z,9.73
2023-03-04T14:16:36.976Z,8.70
2023-03-04T14:19:06.641Z,8.53
2023-03-04T14:21:37.169Z,9.13
2023-03-04T14:24:07.852Z,9.67
2023-03-04T14:26:36.201Z,9.37
2023-03-04T14:29:04.666Z,10.07
2023-03-04T14:31:37.236Z,10.40
2023-03-04T14:34:05.803Z,8.60
2023-03-04T14:36:37.569Z,9.83
2023-03-04T14:39:08.427Z,8.90
2023-03-04T14:41:39.739Z,9.73
2023-03-04T14:44:15.009Z,9.10
2023-03-04T14:47:04.680Z,9.23
2023-03-04T14:49:36.930Z,9.00
2023-03-04T14:52:07.657Z,8.10
2023-03-04T14:54:40.266Z,8.20
2023-03-04T14:57:26.881Z,7.60
2023-03-04T14:59:55.780Z,9.63
2023-03-04T15:02:31.745Z,8.00
2023-03-04T15:05:03.029Z,8.70
2023-03-04T15:07:35.937Z,9.40
2023-03-04T15:10:06.613Z,9.93
2023-03-04T15:12:37.969Z,9.70
2023-03-04T15:15:27.289Z,8.77
2023-03-04T15:18:00.322Z,7.47
2023-03-04T15:20:30.183Z,7.60
2023-03-04T15:23:02.277Z,8.43
2023-03-04T15:25:31.060Z,11.00
2023-03-04T15:28:02.618Z,8.70
2023-03-04T15:30:34.534Z,7.40
2023-03-04T15:33:02.871Z,8.33
2023-03-04T15:35:33.031Z,9.87
2023-03-04T15:38:03.044Z,7.77
2023-03-04T15:40:33.163Z,8.63
2023-03-04T15:43:03.879Z,9.00
2023-03-04T15:45:36.040Z,10.60
2023-03-04T15:48:07.892Z,8.67
2023-03-04T15:50:38.875Z,7.80
2023-03-04T15:53:11.523Z,7.70
2023-03-04T15:55:39.658Z,7.80
2023-03-04T15:58:08.020Z,7.83
2023-03-04T16:00:37.237Z,8.73
2023-03-04T16:03:05.621Z,8.97
2023-03-04T16:05:37.796Z,9.10
2023-03-04T16:08:06.376Z,10.27
2023-03-04T16:10:36.393Z,8.60
2023-03-04T16:13:05.807Z,9.13
2023-03-04T16:15:34.316Z,8.67
2023-03-04T16:18:02.342Z,8.00
2023-03-04T16:20:30.825Z,8.77
2023-03-04T16:23:00.878Z,10.43
2023-03-04T16:25:30.263Z,8.30
2023-03-04T16:28:02.683Z,9.77
2023-03-04T16:30:32.033Z,8.20
2023-03-04T16:33:00.104Z,8.20
2023-03-04T16:35:29.235Z,8.80
2023-03-04T16:37:58.595Z,7.93
2023-03-04T16:40:29.754Z,9.60
2023-03-04T16:42:59.899Z,7.90
2023-03-04T16:45:30.784Z,9.40
2023-03-04T16:47:59.097Z,9.50
2023-03-04T16:50:30.071Z,9.80
2023-03-04T16:53:00.630Z,8.50
2023-03-04T16:55:31.341Z,7.93
2023-03-04T16:58:00.821Z,8.93
2023-03-04T17:00:30.190Z,8.10
2023-03-04T17:03:00.014Z,8.77
2023-03-04T17:05:30.360Z,8.90
2023-03-04T17:07:58.753Z,8.27
2023-03-04T17:10:29.322Z,10.10
2023-03-04T17:12:57.407Z,8.50
2023-03-04T17:15:26.818Z,8.97
2023-03-04T17:17:55.092Z,7.97
2023-03-04T17:20:23.357Z,8.23
2023-03-04T17:22:51.425Z,8.77
2023-03-04T17:25:19.697Z,8.30
2023-03-04T17:27:47.869Z,9.70
2023-03-04T17:30:16.263Z,9.40
2023-03-04T17:32:45.865Z,10.60
2023-03-04T17:35:13.946Z,8.50
2023-03-04T17:37:42.336Z,9.20
2023-03-04T17:40:14.376Z,8.17
2023-03-04T17:42:44.721Z,8.60
2023-03-04T17:45:13.138Z,9.33
2023-03-04T17:47:42.301Z,8.40
2023-03-04T17:50:14.241Z,8.43
2023-03-04T17:52:42.688Z,8.70
2023-03-04T17:55:11.793Z,11.60
2023-03-04T17:57:40.072Z,9.67
2023-03-04T18:00:12.918Z,10.20
2023-03-04T18:02:41.634Z,8.30
2023-03-04T18:05:12.458Z,13.37
2023-03-04T18:07:41.002Z,9.73
2023-03-04T18:10:10.319Z,10.67
2023-03-04T18:12:38.656Z,9.13
2023-03-04T18:15:08.427Z,9.20
2023-03-04T18:17:36.992Z,9.27
2023-03-04T18:20:06.527Z,9.53
2023-03-04T18:22:38.550Z,9.33
2023-03-04T18:25:21.890Z,10.43
2023-03-04T18:27:50.763Z,7.47
2023-03-04T18:30:27.298Z,7.53
2023-03-04T18:32:56.414Z,8.47
2023-03-04T18:35:26.692Z,9.23
2023-03-04T18:37:58.770Z,8.47
2023-03-04T18:40:34.613Z,9.33
2023-03-04T18:43:03.384Z,9.10
2023-03-04T18:45:32.317Z,9.47
2023-03-04T18:48:01.465Z,8.70
2023-03-04T18:50:30.395Z,7.93
2023-03-04T18:53:00.279Z,8.23
2023-03-04T18:55:28.922Z,9.17
2023-03-04T18:58:01.493Z,7.93
2023-03-04T19:00:30.647Z,9.10
2023-03-04T19:03:03.212Z,9.10
2023-03-04T19:05:34.239Z,7.90
2023-03-04T19:08:05.165Z,7.80
2023-03-04T19:10:33.882Z,10.03
2023-03-04T19:13:02.345Z,8.67
2023-03-04T19:15:30.625Z,8.53
2023-03-04T19:17:59.187Z,7.57
2023-03-04T19:20:27.467Z,9.00
2023-03-04T19:22:56.155Z,7.70
2023-03-04T19:25:26.048Z,8.40
2023-03-04T19:27:55.487Z,7.67
2023-03-04T19:30:23.803Z,7.63
2023-03-04T19:32:52.265Z,7.80
2023-03-04T19:35:20.590Z,7.23
2023-03-04T19:37:53.056Z,8.30
2023-03-04T19:40:22.104Z,8.47
2023-03-04T19:42:51.916Z,8.80
2023-03-04T19:45:21.067Z,8.23
2023-03-04T19:47:49.262Z,8.77
2023-03-04T19:50:17.696Z,7.63
2023-03-04T19:52:45.993Z,8.00
2023-03-04T19:55:14.146Z,8.53
2023-03-04T19:57:43.511Z,8.30
2023-03-04T20:00:15.576Z,8.73
2023-03-04T20:02:45.710Z,8.47
2023-03-04T20:05:13.735Z,8.30
2023-03-04T20:07:42.156Z,9.13
2023-03-04T20:10:18.616Z,9.07
2023-03-04T20:12:47.095Z,7.97
2023-03-04T20:15:17.221Z,9.10
2023-03-04T20:17:45.411Z,8.40
2023-03-04T20:20:14.507Z,9.60
2023-03-04T20:22:43.368Z,8.40
2023-03-04T20:25:11.885Z,9.70
2023-03-04T20:27:40.150Z,9.17
2023-03-04T20:30:09.435Z,8.83
2023-03-04T20:32:39.182Z,9.50
2023-03-04T20:35:08.694Z,9.70
2023-03-04T20:37:36.645Z,9.83
2023-03-04T20:40:05.039Z,8.90
2023-03-04T20:42:34.082Z,8.50
2023-03-04T20:45:02.206Z,10.00
2023-03-04T20:47:31.211Z,9.00
2023-03-04T20:50:01.267Z,9.20
2023-03-04T20:52:29.471Z,9.40
2023-03-04T20:54:57.869Z,10.50
2023-03-04T20:57:26.148Z,9.47
2023-03-04T20:59:54.532Z,10.03
2023-03-04T21:02:23.570Z,11.07
2023-03-04T21:04:51.746Z,11.40
2023-03-04T21:07:21.228Z,10.50
2023-03-04T21:09:49.520Z,11.03
2023-03-04T21:12:17.805Z,9.77
2023-03-04T21:14:46.270Z,11.80
2023-03-04T21:17:14.563Z,9.90
2023-03-04T21:19:44.579Z,10.90
2023-03-04T21:22:18.246Z,10.93
2023-03-04T21:24:48.448Z,11.57
2023-03-04T21:27:18.238Z,13.67
2023-03-04T21:29:46.479Z,11.90
2023-03-04T21:32:24.441Z,13.17
2023-03-04T21:34:54.065Z,13.30
2023-03-04T21:37:23.709Z,13.13
2023-03-04T21:39:53.338Z,12.17
2023-03-04T21:42:21.435Z,14.53
2023-03-04T21:44:51.438Z,12.80
2023-03-04T21:47:20.653Z,12.17
2023-03-04T21:49:48.959Z,13.67
2023-03-04T21:52:18.954Z,13.20
2023-03-04T21:54:47.830Z,12.90
2023-03-04T21:57:17.990Z,12.37
2023-03-04T21:59:46.590Z,13.03
2023-03-04T22:02:19.472Z,14.90
2023-03-04T22:04:47.873Z,13.63
2023-03-04T22:07:16.325Z,13.03
2023-03-04T22:09:44.758Z,13.00
2023-03-04T22:12:14.716Z,14.13
2023-03-04T22:14:44.918Z,13.73
2023-03-04T22:17:13.200Z,14.27
2023-03-04T22:19:41.560Z,13.40
2023-03-04T22:22:09.763Z,14.60
2023-03-04T22:24:37.979Z,13.10
2023-03-04T22:27:06.310Z,14.07
2023-03-04T22:29:34.741Z,14.20
2023-03-04T22:32:05.557Z,13.67
2023-03-04T22:34:34.404Z,14.50
2023-03-04T22:37:02.569Z,13.20
2023-03-04T22:39:30.963Z,12.73
2023-03-04T22:41:59.457Z,13.43
2023-03-04T22:44:27.665Z,14.77
2023-03-04T22:46:56.699Z,13.70
2023-03-04T22:49:26.497Z,14.20
2023-03-04T22:51:54.708Z,12.73
2023-03-04T22:54:22.814Z,14.33
2023-03-04T22:56:50.990Z,13.80
2023-03-04T22:59:19.139Z,15.30
2023-03-04T23:01:47.368Z,14.20
2023-03-04T23:04:15.522Z,14.83
2023-03-04T23:06:45.089Z,14.57
2023-03-04T23:09:13.356Z,14.77
2023-03-04T23:11:41.817Z,13.97
2023-03-04T23:14:11.894Z,14.53
2023-03-04T23:16:43.521Z,13.87
2023-03-04T23:19:14.651Z,13.27
2023-03-04T23:21:44.530Z,14.63
2023-03-04T23:24:13.703Z,14.43
2023-03-04T23:26:43.360Z,12.93
2023-03-04T23:29:14.964Z,14.60
2023-03-04T23:31:44.230Z,12.83
2023-03-04T23:34:12.995Z,15.63
2023-03-04T23:36:41.127Z,14.07
2023-03-04T23:39:12.658Z,14.53
2023-03-04T23:41:41.105Z,14.17
2023-03-04T23:44:09.717Z,13.20
2023-03-04T23:46:39.244Z,15.73
2023-03-04T23:49:08.418Z,13.87
2023-03-04T23:51:36.705Z,13.73
2023-03-04T23:54:04.998Z,15.57
2023-03-04T23:56:35.266Z,15.10
2023-03-04T23:59:04.208Z,15.17
